sensor_id;sensor_type;location;lat;lon;timestamp;pressure;altitude;pressure_sealevel;temperature;humidity
29825;BME280;16713;52.916;12.834;2022-08-27T00:01:59;100539.22;;;19.09;93.72
29825;BME280;16713;52.916;12.834;2022-08-27T00:04:26;100541.16;;;19.12;93.18
29825;BME280;16713;52.916;12.834;2022-08-27T00:06:53;100548.94;;;18.94;94.64
29825;BME280;16713;52.916;12.834;2022-08-27T00:09:21;100539.03;;;18.89;94.50
29825;BME280;16713;52.916;12.834;2022-08-27T00:11:52;100542.78;;;18.75;96.04
29825;BME280;16713;52.916;12.834;2022-08-27T00:14:18;100538.31;;;18.85;95.78
29825;BME280;16713;52.916;12.834;2022-08-27T00:16:44;100536.44;;;18.71;95.57
29825;BME280;16713;52.916;12.834;2022-08-27T00:19:11;100546.66;;;18.85;95.73
29825;BME280;16713;52.916;12.834;2022-08-27T00:21:37;100551.50;;;18.77;96.88
29825;BME280;16713;52.916;12.834;2022-08-27T00:24:04;100552.94;;;18.89;96.00
29825;BME280;16713;52.916;12.834;2022-08-27T00:26:30;100547.03;;;18.87;95.69
29825;BME280;16713;52.916;12.834;2022-08-27T00:28:57;100539.63;;;19.07;95.05
29825;BME280;16713;52.916;12.834;2022-08-27T00:31:23;100540.47;;;19.04;94.90
29825;BME280;16713;52.916;12.834;2022-08-27T00:33:53;100533.69;;;19.05;95.10
29825;BME280;16713;52.916;12.834;2022-08-27T00:36:19;100534.97;;;18.97;94.84
29825;BME280;16713;52.916;12.834;2022-08-27T00:38:46;100535.59;;;19.12;94.26
29825;BME280;16713;52.916;12.834;2022-08-27T00:41:19;100530.81;;;19.12;94.26
29825;BME280;16713;52.916;12.834;2022-08-27T00:43:48;100539.13;;;19.16;93.64
29825;BME280;16713;52.916;12.834;2022-08-27T00:46:17;100532.91;;;19.05;93.44
29825;BME280;16713;52.916;12.834;2022-08-27T00:48:44;100537.75;;;18.97;93.80
29825;BME280;16713;52.916;12.834;2022-08-27T00:51:11;100537.06;;;18.90;95.17
29825;BME280;16713;52.916;12.834;2022-08-27T00:53:37;100538.84;;;18.73;96.17
29825;BME280;16713;52.916;12.834;2022-08-27T00:59:00;100545.97;;;18.77;95.95
29825;BME280;16713;52.916;12.834;2022-08-27T01:01:28;100542.41;;;18.73;95.68
29825;BME280;16713;52.916;12.834;2022-08-27T01:03:56;100552.66;;;18.80;96.02
29825;BME280;16713;52.916;12.834;2022-08-27T01:06:24;100551.50;;;18.77;95.37
29825;BME280;16713;52.916;12.834;2022-08-27T01:08:55;100549.50;;;18.78;95.38
29825;BME280;16713;52.916;12.834;2022-08-27T01:11:24;100555.22;;;18.60;96.26
29825;BME280;16713;52.916;12.834;2022-08-27T01:13:50;100553.31;;;18.54;96.07
29825;BME280;16713;52.916;12.834;2022-08-27T01:16:27;100556.84;;;18.58;95.86
29825;BME280;16713;52.916;12.834;2022-08-27T01:18:55;100551.31;;;18.54;96.12
29825;BME280;16713;52.916;12.834;2022-08-27T01:23:55;100551.31;;;18.54;94.66
29825;BME280;16713;52.916;12.834;2022-08-27T01:26:24;100556.91;;;18.51;95.66
29825;BME280;16713;52.916;12.834;2022-08-27T01:28:51;100550.28;;;18.38;95.96
29825;BME280;16713;52.916;12.834;2022-08-27T01:31:18;100559.41;;;18.38;95.21
29825;BME280;16713;52.916;12.834;2022-08-27T01:33:55;100557.88;;;18.34;95.12
29825;BME280;16713;52.916;12.834;2022-08-27T01:36:22;100574.78;;;18.50;94.73
29825;BME280;16713;52.916;12.834;2022-08-27T01:38:48;100574.88;;;18.39;96.05
29825;BME280;16713;52.916;12.834;2022-08-27T01:41:15;100572.06;;;18.43;96.94
29825;BME280;16713;52.916;12.834;2022-08-27T01:43:42;100574.88;;;18.39;97.12
29825;BME280;16713;52.916;12.834;2022-08-27T01:46:09;100571.22;;;18.49;97.57
29825;BME280;16713;52.916;12.834;2022-08-27T01:48:35;100581.50;;;18.52;97.26
29825;BME280;16713;52.916;12.834;2022-08-27T01:51:02;100575.94;;;18.52;97.94
29825;BME280;16713;52.916;12.834;2022-08-27T01:53:28;100572.34;;;18.55;98.62
29825;BME280;16713;52.916;12.834;2022-08-27T01:55:55;100571.50;;;18.58;98.23
29825;BME280;16713;52.916;12.834;2022-08-27T01:58:24;100574.50;;;18.78;97.06
29825;BME280;16713;52.916;12.834;2022-08-27T02:00:51;100578.53;;;18.70;96.34
29825;BME280;16713;52.916;12.834;2022-08-27T02:03:21;100572.50;;;18.82;96.32
29825;BME280;16713;52.916;12.834;2022-08-27T02:05:48;100576.13;;;18.75;96.35
29825;BME280;16713;52.916;12.834;2022-08-27T02:08:15;100576.41;;;18.88;95.97
29825;BME280;16713;52.916;12.834;2022-08-27T02:10:43;100578.88;;;18.79;94.93
29825;BME280;16713;52.916;12.834;2022-08-27T02:13:10;100577.66;;;18.80;95.78
29825;BME280;16713;52.916;12.834;2022-08-27T02:15:38;100583.47;;;18.93;94.78
29825;BME280;16713;52.916;12.834;2022-08-27T02:18:05;100576.78;;;18.90;95.37
29825;BME280;16713;52.916;12.834;2022-08-27T02:20:32;100567.72;;;18.82;94.30
29825;BME280;16713;52.916;12.834;2022-08-27T02:22:59;100573.19;;;18.90;94.72
29825;BME280;16713;52.916;12.834;2022-08-27T02:25:26;100572.31;;;18.96;93.31
29825;BME280;16713;52.916;12.834;2022-08-27T02:27:54;100569.78;;;18.75;94.17
29825;BME280;16713;52.916;12.834;2022-08-27T02:30:22;100569.38;;;18.76;94.33
29825;BME280;16713;52.916;12.834;2022-08-27T02:32:49;100574.22;;;18.65;94.51
29825;BME280;16713;52.916;12.834;2022-08-27T02:35:19;100584.50;;;18.72;93.77
29825;BME280;16713;52.916;12.834;2022-08-27T02:37:46;100573.44;;;18.65;94.47
29825;BME280;16713;52.916;12.834;2022-08-27T02:40:13;100573.13;;;18.56;94.22
29825;BME280;16713;52.916;12.834;2022-08-27T02:42:44;100563.59;;;18.57;95.17
29825;BME280;16713;52.916;12.834;2022-08-27T02:45:11;100573.75;;;18.33;95.85
29825;BME280;16713;52.916;12.834;2022-08-27T02:47:38;100564.81;;;18.52;95.01
29825;BME280;16713;52.916;12.834;2022-08-27T02:50:05;100562.06;;;18.49;94.98
29825;BME280;16713;52.916;12.834;2022-08-27T02:52:31;100563.56;;;18.60;95.24
29825;BME280;16713;52.916;12.834;2022-08-27T02:54:58;100568.19;;;18.33;95.18
29825;BME280;16713;52.916;12.834;2022-08-27T02:57:25;100578.50;;;18.33;95.00
29825;BME280;16713;52.916;12.834;2022-08-27T02:59:53;100572.78;;;18.50;94.68
29825;BME280;16713;52.916;12.834;2022-08-27T03:02:20;100579.16;;;18.47;95.60
29825;BME280;16713;52.916;12.834;2022-08-27T03:04:47;100576.97;;;18.28;95.33
29825;BME280;16713;52.916;12.834;2022-08-27T03:07:15;100590.00;;;18.35;95.32
29825;BME280;16713;52.916;12.834;2022-08-27T03:09:44;100585.69;;;18.30;95.75
29825;BME280;16713;52.916;12.834;2022-08-27T03:12:10;100581.75;;;18.24;95.90
29825;BME280;16713;52.916;12.834;2022-08-27T03:14:38;100584.16;;;18.22;95.03
29825;BME280;16713;52.916;12.834;2022-08-27T03:17:04;100582.47;;;18.32;96.01
29825;BME280;16713;52.916;12.834;2022-08-27T03:19:49;100583.34;;;18.25;95.46
29825;BME280;16713;52.916;12.834;2022-08-27T03:22:16;100579.44;;;18.19;95.88
29825;BME280;16713;52.916;12.834;2022-08-27T03:24:42;100575.47;;;18.17;96.11
29825;BME280;16713;52.916;12.834;2022-08-27T03:27:09;100579.06;;;18.14;95.61
29825;BME280;16713;52.916;12.834;2022-08-27T03:29:35;100573.47;;;18.21;95.67
29825;BME280;16713;52.916;12.834;2022-08-27T03:32:01;100579.00;;;18.24;96.75
29825;BME280;16713;52.916;12.834;2022-08-27T03:34:28;100569.81;;;18.31;96.61
29825;BME280;16713;52.916;12.834;2022-08-27T03:36:55;100559.41;;;18.38;95.70
29825;BME280;16713;52.916;12.834;2022-08-27T03:39:21;100566.22;;;18.34;96.13
29825;BME280;16713;52.916;12.834;2022-08-27T03:41:48;100567.69;;;18.45;95.35
29825;BME280;16713;52.916;12.834;2022-08-27T03:44:21;100567.72;;;18.42;96.67
29825;BME280;16713;52.916;12.834;2022-08-27T03:46:48;100567.22;;;18.50;95.45
29825;BME280;16713;52.916;12.834;2022-08-27T03:49:15;100565.25;;;18.51;96.10
29825;BME280;16713;52.916;12.834;2022-08-27T03:51:46;100566.41;;;18.53;95.23
29825;BME280;16713;52.916;12.834;2022-08-27T03:54:12;100569.53;;;18.59;95.68
29825;BME280;16713;52.916;12.834;2022-08-27T03:56:38;100565.19;;;18.58;94.68
29825;BME280;16713;52.916;12.834;2022-08-27T03:59:06;100570.56;;;18.79;94.51
29825;BME280;16713;52.916;12.834;2022-08-27T04:01:33;100565.84;;;18.72;94.92
29825;BME280;16713;52.916;12.834;2022-08-27T04:04:00;100563.84;;;18.73;94.23
29825;BME280;16713;52.916;12.834;2022-08-27T04:06:26;100565.50;;;18.63;94.24
29825;BME280;16713;52.916;12.834;2022-08-27T04:08:53;100569.88;;;18.64;95.22
29825;BME280;16713;52.916;12.834;2022-08-27T04:11:19;100573.44;;;18.65;94.46
29825;BME280;16713;52.916;12.834;2022-08-27T04:13:47;100570.66;;;18.65;94.21
29825;BME280;16713;52.916;12.834;2022-08-27T04:16:13;100578.25;;;18.61;94.36
29825;BME280;16713;52.916;12.834;2022-08-27T04:18:40;100579.75;;;18.69;94.50
29825;BME280;16713;52.916;12.834;2022-08-27T04:21:07;100578.28;;;18.57;94.62
29825;BME280;16713;52.916;12.834;2022-08-27T04:23:34;100575.09;;;18.55;95.08
29825;BME280;16713;52.916;12.834;2022-08-27T04:26:03;100571.16;;;18.56;93.95
29825;BME280;16713;52.916;12.834;2022-08-27T04:28:30;100572.75;;;18.54;94.67
29825;BME280;16713;52.916;12.834;2022-08-27T04:31:03;100572.69;;;18.61;95.53
29825;BME280;16713;52.916;12.834;2022-08-27T04:33:30;100569.56;;;18.55;95.14
29825;BME280;16713;52.916;12.834;2022-08-27T04:36:02;100569.25;;;18.46;95.14
29825;BME280;16713;52.916;12.834;2022-08-27T04:38:28;100574.56;;;18.30;96.64
29825;BME280;16713;52.916;12.834;2022-08-27T04:40:57;100583.19;;;18.39;96.07
29825;BME280;16713;52.916;12.834;2022-08-27T04:43:42;100578.59;;;18.22;96.42
29825;BME280;16713;52.916;12.834;2022-08-27T04:46:09;100581.00;;;18.20;97.57
29825;BME280;16713;52.916;12.834;2022-08-27T04:48:35;100580.16;;;18.23;97.12
29825;BME280;16713;52.916;12.834;2022-08-27T04:51:03;100577.41;;;18.23;96.79
29825;BME280;16713;52.916;12.834;2022-08-27T04:53:31;100576.66;;;18.19;96.56
29825;BME280;16713;52.916;12.834;2022-08-27T04:55:58;100573.91;;;18.12;97.82
29825;BME280;16713;52.916;12.834;2022-08-27T04:58:24;100577.06;;;18.18;97.32
29825;BME280;16713;52.916;12.834;2022-08-27T05:00:53;100574.66;;;18.20;97.50
29825;BME280;16713;52.916;12.834;2022-08-27T05:03:21;100574.97;;;18.29;97.99
29825;BME280;16713;52.916;12.834;2022-08-27T05:05:49;100574.19;;;18.28;97.93
29825;BME280;16713;52.916;12.834;2022-08-27T05:08:16;100572.91;;;18.36;97.76
29825;BME280;16713;52.916;12.834;2022-08-27T05:10:47;100569.13;;;18.20;97.74
29825;BME280;16713;52.916;12.834;2022-08-27T05:13:14;100565.47;;;18.26;97.11
29825;BME280;16713;52.916;12.834;2022-08-27T05:15:43;100565.94;;;18.21;98.17
29825;BME280;16713;52.916;12.834;2022-08-27T05:18:10;100572.66;;;18.20;97.25
29825;BME280;16713;52.916;12.834;2022-08-27T05:20:45;100571.41;;;18.28;98.56
29825;BME280;16713;52.916;12.834;2022-08-27T05:23:13;100570.56;;;18.31;97.95
29825;BME280;16713;52.916;12.834;2022-08-27T05:25:41;100567.31;;;18.43;97.86
29825;BME280;16713;52.916;12.834;2022-08-27T05:28:08;100569.28;;;18.43;97.65
29825;BME280;16713;52.916;12.834;2022-08-27T05:30:36;100568.41;;;18.53;98.28
29825;BME280;16713;52.916;12.834;2022-08-27T05:33:03;100575.56;;;18.50;97.99
29825;BME280;16713;52.916;12.834;2022-08-27T05:35:29;100569.22;;;18.50;97.64
29825;BME280;16713;52.916;12.834;2022-08-27T05:37:57;100571.06;;;18.63;97.78
29825;BME280;16713;52.916;12.834;2022-08-27T05:40:25;100585.31;;;18.69;96.97
29825;BME280;16713;52.916;12.834;2022-08-27T05:42:51;100581.66;;;18.79;96.37
29825;BME280;16713;52.916;12.834;2022-08-27T05:45:18;100586.88;;;18.73;97.32
29825;BME280;16713;52.916;12.834;2022-08-27T05:47:44;100582.84;;;18.78;96.56
29825;BME280;16713;52.916;12.834;2022-08-27T05:50:11;100584.78;;;18.81;96.62
29825;BME280;16713;52.916;12.834;2022-08-27T05:52:37;100583.91;;;18.91;96.10
29825;BME280;16713;52.916;12.834;2022-08-27T05:55:04;100583.19;;;18.83;96.27
29825;BME280;16713;52.916;12.834;2022-08-27T05:57:30;100585.00;;;18.97;95.91
29825;BME280;16713;52.916;12.834;2022-08-27T05:59:57;100591.78;;;18.96;95.53
29825;BME280;16713;52.916;12.834;2022-08-27T06:02:42;100597.09;;;18.83;96.60
29825;BME280;16713;52.916;12.834;2022-08-27T06:05:09;100599.47;;;18.85;96.63
29825;BME280;16713;52.916;12.834;2022-08-27T06:07:36;100589.56;;;18.84;95.97
29825;BME280;16713;52.916;12.834;2022-08-27T06:10:03;100599.78;;;18.91;95.60
29825;BME280;16713;52.916;12.834;2022-08-27T06:12:33;100592.41;;;18.77;96.82
29825;BME280;16713;52.916;12.834;2022-08-27T06:15:00;100599.09;;;18.79;97.24
29825;BME280;16713;52.916;12.834;2022-08-27T06:17:27;100591.53;;;18.83;96.40
29825;BME280;16713;52.916;12.834;2022-08-27T06:19:54;100593.19;;;18.77;96.20
29825;BME280;16713;52.916;12.834;2022-08-27T06:22:20;100590.06;;;18.68;96.46
29825;BME280;16713;52.916;12.834;2022-08-27T06:24:46;100591.63;;;18.73;97.54
29825;BME280;16713;52.916;12.834;2022-08-27T06:27:14;100590.06;;;18.72;97.55
29825;BME280;16713;52.916;12.834;2022-08-27T06:29:41;100589.66;;;18.73;96.80
29825;BME280;16713;52.916;12.834;2022-08-27T06:32:08;100585.78;;;18.60;97.71
29825;BME280;16713;52.916;12.834;2022-08-27T06:34:35;100593.78;;;18.55;98.17
29825;BME280;16713;52.916;12.834;2022-08-27T06:37:02;100583.53;;;17.32;91.71
29825;BME280;16713;52.916;12.834;2022-08-27T06:39:28;100596.16;;;18.09;96.75
29825;BME280;16713;52.916;12.834;2022-08-27T06:41:56;100588.53;;;17.62;91.79
29825;BME280;16713;52.916;12.834;2022-08-27T06:44:22;100595.97;;;18.30;96.95
29825;BME280;16713;52.916;12.834;2022-08-27T06:46:52;100603.00;;;18.45;99.24
29825;BME280;16713;52.916;12.834;2022-08-27T06:49:18;100594.88;;;18.64;98.86
29825;BME280;16713;52.916;12.834;2022-08-27T06:51:45;100608.69;;;18.75;98.78
29825;BME280;16713;52.916;12.834;2022-08-27T06:54:12;100603.78;;;18.90;98.24
29825;BME280;16713;52.916;12.834;2022-08-27T06:56:40;100603.72;;;18.97;96.82
29825;BME280;16713;52.916;12.834;2022-08-27T06:59:08;100602.41;;;19.05;96.90
29825;BME280;16713;52.916;12.834;2022-08-27T07:01:38;100609.13;;;19.07;96.55
29825;BME280;16713;52.916;12.834;2022-08-27T07:04:06;100603.50;;;19.14;96.24
29825;BME280;16713;52.916;12.834;2022-08-27T07:06:34;100607.06;;;19.15;96.43
29825;BME280;16713;52.916;12.834;2022-08-27T07:09:01;100607.81;;;19.19;96.29
29825;BME280;16713;52.916;12.834;2022-08-27T07:11:28;100614.03;;;19.30;95.66
29825;BME280;16713;52.916;12.834;2022-08-27T07:13:57;100612.78;;;19.34;95.56
29825;BME280;16713;52.916;12.834;2022-08-27T07:16:24;100617.91;;;19.36;95.26
29825;BME280;16713;52.916;12.834;2022-08-27T07:18:52;100610.81;;;19.31;95.82
29825;BME280;16713;52.916;12.834;2022-08-27T07:21:20;100613.16;;;19.36;94.88
29825;BME280;16713;52.916;12.834;2022-08-27T07:23:47;100613.84;;;19.44;95.08
29825;BME280;16713;52.916;12.834;2022-08-27T07:26:15;100610.72;;;19.42;95.49
29825;BME280;16713;52.916;12.834;2022-08-27T07:28:42;100617.78;;;19.50;95.07
29825;BME280;16713;52.916;12.834;2022-08-27T07:31:10;100614.25;;;19.42;95.00
29825;BME280;16713;52.916;12.834;2022-08-27T07:33:38;100613.06;;;19.43;94.79
29825;BME280;16713;52.916;12.834;2022-08-27T07:36:10;100624.91;;;19.51;94.97
29825;BME280;16713;52.916;12.834;2022-08-27T07:38:37;100619.34;;;19.51;95.12
29825;BME280;16713;52.916;12.834;2022-08-27T07:41:04;100626.06;;;19.53;95.50
29825;BME280;16713;52.916;12.834;2022-08-27T07:43:31;100630.75;;;19.60;95.39
29825;BME280;16713;52.916;12.834;2022-08-27T07:46:21;100625.13;;;19.33;95.51
29825;BME280;16713;52.916;12.834;2022-08-27T07:48:49;100632.16;;;19.41;95.41
29825;BME280;16713;52.916;12.834;2022-08-27T07:51:17;100634.53;;;19.43;95.33
29825;BME280;16713;52.916;12.834;2022-08-27T07:53:44;100634.56;;;19.39;96.09
29825;BME280;16713;52.916;12.834;2022-08-27T07:56:11;100629.13;;;19.32;95.47
29825;BME280;16713;52.916;12.834;2022-08-27T07:58:38;100633.78;;;19.39;96.36
29825;BME280;16713;52.916;12.834;2022-08-27T08:01:05;100641.81;;;19.33;96.24
29825;BME280;16713;52.916;12.834;2022-08-27T08:03:32;100642.94;;;19.36;96.78
29825;BME280;16713;52.916;12.834;2022-08-27T08:06:03;100645.00;;;19.32;96.80
29825;BME280;16713;52.916;12.834;2022-08-27T08:08:32;100649.59;;;19.45;96.62
29825;BME280;16713;52.916;12.834;2022-08-27T08:10:59;100649.69;;;19.38;96.71
29825;BME280;16713;52.916;12.834;2022-08-27T08:13:25;100651.28;;;19.36;97.37
29825;BME280;16713;52.916;12.834;2022-08-27T08:15:52;100651.25;;;19.39;96.71
29825;BME280;16713;52.916;12.834;2022-08-27T08:18:18;100656.41;;;19.41;96.33
29825;BME280;16713;52.916;12.834;2022-08-27T08:20:45;100654.84;;;19.40;96.38
29825;BME280;16713;52.916;12.834;2022-08-27T08:23:24;100649.81;;;19.28;96.35
29825;BME280;16713;52.916;12.834;2022-08-27T08:25:50;100646.66;;;19.26;97.26
29825;BME280;16713;52.916;12.834;2022-08-27T08:28:16;100652.31;;;19.19;97.04
29825;BME280;16713;52.916;12.834;2022-08-27T08:30:43;100646.97;;;19.31;97.38
29825;BME280;16713;52.916;12.834;2022-08-27T08:33:10;100648.97;;;19.31;97.25
29825;BME280;16713;52.916;12.834;2022-08-27T08:35:39;100647.34;;;19.37;97.48
29825;BME280;16713;52.916;12.834;2022-08-27T08:38:06;100652.50;;;19.35;97.44
29825;BME280;16713;52.916;12.834;2022-08-27T08:40:34;100661.53;;;19.46;97.60
29825;BME280;16713;52.916;12.834;2022-08-27T08:43:02;100653.16;;;19.49;97.25
29825;BME280;16713;52.916;12.834;2022-08-27T08:45:31;100656.78;;;19.46;97.45
29825;BME280;16713;52.916;12.834;2022-08-27T08:53:08;100653.34;;;19.65;96.67
29825;BME280;16713;52.916;12.834;2022-08-27T08:55:44;100653.81;;;19.60;96.03
29825;BME280;16713;52.916;12.834;2022-08-27T09:00:53;100651.53;;;19.82;96.21
29825;BME280;16713;52.916;12.834;2022-08-27T09:03:20;100653.94;;;19.80;95.68
29825;BME280;16713;52.916;12.834;2022-08-27T09:05:48;100654.53;;;19.94;94.94
29825;BME280;16713;52.916;12.834;2022-08-27T09:08:18;100654.31;;;19.82;94.78
29825;BME280;16713;52.916;12.834;2022-08-27T09:11:07;100661.47;;;19.83;95.61
29825;BME280;16713;52.916;12.834;2022-08-27T09:13:38;100660.31;;;19.80;95.82
29825;BME280;16713;52.916;12.834;2022-08-27T09:16:05;100658.72;;;19.79;96.00
29825;BME280;16713;52.916;12.834;2022-08-27T09:18:34;100662.72;;;19.78;96.08
29825;BME280;16713;52.916;12.834;2022-08-27T09:26:37;100662.44;;;19.69;95.94
29825;BME280;16713;52.916;12.834;2022-08-27T09:29:05;100663.72;;;19.61;95.81
29825;BME280;16713;52.916;12.834;2022-08-27T09:31:51;100662.34;;;19.43;96.38
29825;BME280;16713;52.916;12.834;2022-08-27T09:34:19;100668.69;;;19.47;97.09
29825;BME280;16713;52.916;12.834;2022-08-27T09:37:05;100669.84;;;19.49;97.31
29825;BME280;16713;52.916;12.834;2022-08-27T09:39:40;100665.09;;;19.50;96.41
29825;BME280;16713;52.916;12.834;2022-08-27T09:42:17;100659.09;;;19.51;96.73
29825;BME280;16713;52.916;12.834;2022-08-27T09:44:47;100658.69;;;19.53;97.83
29825;BME280;16713;52.916;12.834;2022-08-27T09:47:19;100650.31;;;19.56;97.97
29825;BME280;16713;52.916;12.834;2022-08-27T09:49:45;100644.81;;;19.49;97.86
29825;BME280;16713;52.916;12.834;2022-08-27T09:55:38;100641.53;;;19.58;98.50
29825;BME280;16713;52.916;12.834;2022-08-27T09:58:15;100635.22;;;19.54;98.62
29825;BME280;16713;52.916;12.834;2022-08-27T10:00:42;100638.69;;;19.61;99.19
29825;BME280;16713;52.916;12.834;2022-08-27T10:03:09;100642.25;;;19.62;98.09
29825;BME280;16713;52.916;12.834;2022-08-27T10:05:38;100645.50;;;19.57;98.61
29825;BME280;16713;52.916;12.834;2022-08-27T10:08:19;100646.38;;;19.50;99.83
29825;BME280;16713;52.916;12.834;2022-08-27T10:10:51;100644.31;;;19.58;99.59
29825;BME280;16713;52.916;12.834;2022-08-27T10:13:20;100643.78;;;19.66;98.60
29825;BME280;16713;52.916;12.834;2022-08-27T10:18:24;100633.72;;;19.76;99.48
29825;BME280;16713;52.916;12.834;2022-08-27T10:21:11;100634.34;;;19.87;99.71
29825;BME280;16713;52.916;12.834;2022-08-27T10:26:25;100630.78;;;20.13;98.92
29825;BME280;16713;52.916;12.834;2022-08-27T10:29:05;100630.72;;;20.16;98.37
29825;BME280;16713;52.916;12.834;2022-08-27T10:47:22;100631.75;;;20.53;95.20
29825;BME280;16713;52.916;12.834;2022-08-27T10:52:25;100638.00;;;20.60;94.58
29825;BME280;16713;52.916;12.834;2022-08-27T11:01:09;100651.31;;;20.49;94.90
29825;BME280;16713;52.916;12.834;2022-08-27T11:03:18;100652.63;;;20.18;94.63
29825;BME280;16713;52.916;12.834;2022-08-27T11:05:48;100658.94;;;20.22;93.55
29825;BME280;16713;52.916;12.834;2022-08-27T11:08:28;100657.78;;;19.89;94.76
29825;BME280;16713;52.916;12.834;2022-08-27T11:11:10;100662.09;;;19.94;94.67
29825;BME280;16713;52.916;12.834;2022-08-27T11:13:58;100669.22;;;20.25;94.59
29825;BME280;16713;52.916;12.834;2022-08-27T11:17:01;100669.94;;;20.29;93.77
29825;BME280;16713;52.916;12.834;2022-08-27T11:19:54;100673.72;;;20.42;93.65
29825;BME280;16713;52.916;12.834;2022-08-27T11:22:15;100668.63;;;20.10;95.16
29825;BME280;16713;52.916;12.834;2022-08-27T11:24:56;100675.56;;;20.26;95.04
29825;BME280;16713;52.916;12.834;2022-08-27T11:27:25;100672.34;;;20.27;94.73
29825;BME280;16713;52.916;12.834;2022-08-27T11:29:58;100675.53;;;20.29;94.72
29825;BME280;16713;52.916;12.834;2022-08-27T11:32:48;100676.31;;;20.30;95.00
29825;BME280;16713;52.916;12.834;2022-08-27T11:35:21;100673.16;;;20.28;93.83
29825;BME280;16713;52.916;12.834;2022-08-27T11:41:24;100674.25;;;20.07;94.97
29825;BME280;16713;52.916;12.834;2022-08-27T11:43:23;100666.56;;;19.88;95.27
29825;BME280;16713;52.916;12.834;2022-08-27T11:46:01;100669.91;;;19.76;95.73
29825;BME280;16713;52.916;12.834;2022-08-27T11:48:32;100679.56;;;19.98;95.69
29825;BME280;16713;52.916;12.834;2022-08-27T11:51:13;100684.28;;;20.01;95.41
29825;BME280;16713;52.916;12.834;2022-08-27T11:53:59;100680.28;;;20.02;94.65
29825;BME280;16713;52.916;12.834;2022-08-27T12:01:55;100672.88;;;20.45;92.56
29825;BME280;16713;52.916;12.834;2022-08-27T12:07:00;100671.00;;;20.39;92.17
29825;BME280;16713;52.916;12.834;2022-08-27T12:09:27;100670.50;;;20.44;91.46
29825;BME280;16713;52.916;12.834;2022-08-27T12:12:02;100675.66;;;20.45;91.64
29825;BME280;16713;52.916;12.834;2022-08-27T12:19:33;100668.00;;;20.53;91.61
29825;BME280;16713;52.916;12.834;2022-08-27T12:27:29;100670.84;;;20.49;92.22
29825;BME280;16713;52.916;12.834;2022-08-27T12:30:01;100660.34;;;20.57;91.50
29825;BME280;16713;52.916;12.834;2022-08-27T12:32:32;100671.50;;;20.57;91.36
29825;BME280;16713;52.916;12.834;2022-08-27T12:37:48;100667.63;;;20.51;91.25
29825;BME280;16713;52.916;12.834;2022-08-27T12:42:45;100667.91;;;20.33;92.21
29825;BME280;16713;52.916;12.834;2022-08-27T12:45:23;100668.38;;;20.28;92.98
29825;BME280;16713;52.916;12.834;2022-08-27T12:47:50;100679.09;;;20.30;93.78
29825;BME280;16713;52.916;12.834;2022-08-27T12:50:22;100675.56;;;20.26;93.84
29825;BME280;16713;52.916;12.834;2022-08-27T13:00:17;100664.25;;;20.09;94.32
29825;BME280;16713;52.916;12.834;2022-08-27T13:05:34;100662.28;;;20.37;93.21
29825;BME280;16713;52.916;12.834;2022-08-27T13:08:02;100670.56;;;20.40;93.34
29825;BME280;16713;52.916;12.834;2022-08-27T13:10:29;100663.19;;;20.00;93.64
29825;BME280;16713;52.916;12.834;2022-08-27T13:13:05;100664.31;;;20.06;94.08
29825;BME280;16713;52.916;12.834;2022-08-27T13:15:32;100657.84;;;20.39;92.93
29825;BME280;16713;52.916;12.834;2022-08-27T13:18:01;100651.34;;;20.23;93.65
29825;BME280;16713;52.916;12.834;2022-08-27T13:20:29;100648.03;;;20.31;92.97
29825;BME280;16713;52.916;12.834;2022-08-27T13:22:56;100655.91;;;20.36;93.30
29825;BME280;16713;52.916;12.834;2022-08-27T13:25:29;100658.69;;;20.09;92.70
29825;BME280;16713;52.916;12.834;2022-08-27T13:28:02;100657.34;;;20.21;92.90
29825;BME280;16713;52.916;12.834;2022-08-27T13:30:36;100657.81;;;20.43;92.00
29825;BME280;16713;52.916;12.834;2022-08-27T13:33:04;100660.03;;;20.28;91.27
29825;BME280;16713;52.916;12.834;2022-08-27T13:35:31;100659.44;;;20.13;91.03
29825;BME280;16713;52.916;12.834;2022-08-27T13:37:58;100662.81;;;20.28;91.12
29825;BME280;16713;52.916;12.834;2022-08-27T13:40:29;100667.91;;;20.33;90.91
29825;BME280;16713;52.916;12.834;2022-08-27T13:43:01;100660.97;;;20.45;90.91
29825;BME280;16713;52.916;12.834;2022-08-27T13:45:28;100676.66;;;20.58;90.79
29825;BME280;16713;52.916;12.834;2022-08-27T13:47:55;100670.16;;;20.65;90.20
29825;BME280;16713;52.916;12.834;2022-08-27T13:50:23;100677.81;;;20.61;89.96
29825;BME280;16713;52.916;12.834;2022-08-27T13:52:51;100675.03;;;20.61;90.08
29825;BME280;16713;52.916;12.834;2022-08-27T13:55:44;100687.19;;;20.47;88.79
29825;BME280;16713;52.916;12.834;2022-08-27T13:58:12;100686.22;;;20.57;88.32
29825;BME280;16713;52.916;12.834;2022-08-27T14:00:40;100678.63;;;20.58;87.61
29825;BME280;16713;52.916;12.834;2022-08-27T14:06:06;100689.69;;;20.65;88.77
29825;BME280;16713;52.916;12.834;2022-08-27T14:08:33;100683.03;;;20.59;88.05
29825;BME280;16713;52.916;12.834;2022-08-27T14:11:05;100692.94;;;20.60;88.73
29825;BME280;16713;52.916;12.834;2022-08-27T14:13:40;100700.25;;;20.77;88.25
29825;BME280;16713;52.916;12.834;2022-08-27T14:16:13;100697.59;;;20.43;88.20
29825;BME280;16713;52.916;12.834;2022-08-27T14:18:49;100702.38;;;20.43;88.78
29825;BME280;16713;52.916;12.834;2022-08-27T14:21:24;100695.91;;;20.49;87.19
29825;BME280;16713;52.916;12.834;2022-08-27T14:23:51;100701.16;;;20.44;87.92